sensor_id;sensor_type;location;lat;lon;timestamp;P1;durP1;ratioP1;P2;durP2;ratioP2
76039;SDS011;64736;50.462;4.850;2024-03-08T00:01:30;20.80;;;12.50;;
76039;SDS011;64736;50.462;4.850;2024-03-08T00:03:56;20.98;;;11.25;;
76039;SDS011;64736;50.462;4.850;2024-03-08T00:06:22;19.23;;;11.35;;
76039;SDS011;64736;50.462;4.850;2024-03-08T00:08:48;19.27;;;12.02;;
76039;SDS011;64736;50.462;4.850;2024-03-08T00:11:13;20.40;;;12.27;;
76039;SDS011;64736;50.462;4.850;2024-03-08T00:13:39;20.30;;;12.32;;
76039;SDS011;64736;50.462;4.850;2024-03-08T00:16:05;21.95;;;13.45;;
76039;SDS011;64736;50.462;4.850;2024-03-08T00:18:31;20.25;;;12.63;;
76039;SDS011;64736;50.462;4.850;2024-03-08T00:20:56;22.52;;;12.93;;
76039;SDS011;64736;50.462;4.850;2024-03-08T00:23:22;23.60;;;13.50;;
76039;SDS011;64736;50.462;4.850;2024-03-08T00:25:48;20.08;;;11.63;;
76039;SDS011;64736;50.462;4.850;2024-03-08T00:28:14;23.05;;;12.73;;
76039;SDS011;64736;50.462;4.850;2024-03-08T00:30:42;25.45;;;13.10;;
76039;SDS011;64736;50.462;4.850;2024-03-08T00:33:08;18.13;;;12.23;;
76039;SDS011;64736;50.462;4.850;2024-03-08T00:35:33;20.40;;;13.57;;
76039;SDS011;64736;50.462;4.850;2024-03-08T00:37:59;22.42;;;13.60;;
76039;SDS011;64736;50.462;4.850;2024-03-08T00:40:25;17.70;;;10.80;;
76039;SDS011;64736;50.462;4.850;2024-03-08T00:42:51;19.65;;;12.45;;
76039;SDS011;64736;50.462;4.850;2024-03-08T00:45:18;18.60;;;11.13;;
76039;SDS011;64736;50.462;4.850;2024-03-08T00:47:44;20.05;;;13.25;;
76039;SDS011;64736;50.462;4.850;2024-03-08T00:50:10;21.73;;;13.00;;
76039;SDS011;64736;50.462;4.850;2024-03-08T00:52:36;20.98;;;11.95;;
76039;SDS011;64736;50.462;4.850;2024-03-08T00:55:02;18.45;;;11.32;;
76039;SDS011;64736;50.462;4.850;2024-03-08T00:57:28;22.67;;;12.35;;
76039;SDS011;64736;50.462;4.850;2024-03-08T00:59:55;24.60;;;12.77;;
76039;SDS011;64736;50.462;4.850;2024-03-08T01:02:21;21.70;;;12.93;;
76039;SDS011;64736;50.462;4.850;2024-03-08T01:04:48;20.58;;;11.55;;
76039;SDS011;64736;50.462;4.850;2024-03-08T01:07:14;22.63;;;12.02;;
76039;SDS011;64736;50.462;4.850;2024-03-08T01:09:40;21.08;;;12.80;;
76039;SDS011;64736;50.462;4.850;2024-03-08T01:12:06;21.23;;;12.65;;
76039;SDS011;64736;50.462;4.850;2024-03-08T01:14:32;22.95;;;12.40;;
76039;SDS011;64736;50.462;4.850;2024-03-08T01:16:58;21.10;;;13.07;;
76039;SDS011;64736;50.462;4.850;2024-03-08T01:19:24;20.02;;;12.20;;
76039;SDS011;64736;50.462;4.850;2024-03-08T01:21:50;17.17;;;12.13;;
76039;SDS011;64736;50.462;4.850;2024-03-08T01:24:16;20.77;;;12.18;;
76039;SDS011;64736;50.462;4.850;2024-03-08T01:26:42;22.60;;;12.52;;
76039;SDS011;64736;50.462;4.850;2024-03-08T01:29:08;20.70;;;12.15;;
76039;SDS011;64736;50.462;4.850;2024-03-08T01:31:33;17.90;;;10.90;;
76039;SDS011;64736;50.462;4.850;2024-03-08T01:34:02;21.35;;;12.23;;
76039;SDS011;64736;50.462;4.850;2024-03-08T01:36:27;21.00;;;13.18;;
76039;SDS011;64736;50.462;4.850;2024-03-08T01:38:53;19.30;;;12.10;;
76039;SDS011;64736;50.462;4.850;2024-03-08T01:41:20;22.27;;;13.25;;
76039;SDS011;64736;50.462;4.850;2024-03-08T01:43:46;19.95;;;12.10;;
76039;SDS011;64736;50.462;4.850;2024-03-08T01:46:13;20.00;;;11.77;;
76039;SDS011;64736;50.462;4.850;2024-03-08T01:48:43;18.73;;;12.25;;
76039;SDS011;64736;50.462;4.850;2024-03-08T01:51:09;19.80;;;11.38;;
76039;SDS011;64736;50.462;4.850;2024-03-08T01:53:37;19.23;;;12.40;;
76039;SDS011;64736;50.462;4.850;2024-03-08T01:56:03;21.35;;;12.20;;
76039;SDS011;64736;50.462;4.850;2024-03-08T01:58:31;20.05;;;11.68;;
76039;SDS011;64736;50.462;4.850;2024-03-08T02:00:58;24.58;;;11.73;;
76039;SDS011;64736;50.462;4.850;2024-03-08T02:03:24;19.73;;;12.38;;
76039;SDS011;64736;50.462;4.850;2024-03-08T02:05:50;22.23;;;12.02;;
76039;SDS011;64736;50.462;4.850;2024-03-08T02:08:16;21.15;;;13.93;;
76039;SDS011;64736;50.462;4.850;2024-03-08T02:10:46;22.45;;;13.15;;
76039;SDS011;64736;50.462;4.850;2024-03-08T02:18:25;23.67;;;12.70;;
76039;SDS011;64736;50.462;4.850;2024-03-08T02:20:52;22.08;;;12.10;;
76039;SDS011;64736;50.462;4.850;2024-03-08T02:23:19;25.35;;;12.20;;
76039;SDS011;64736;50.462;4.850;2024-03-08T02:25:46;22.65;;;12.85;;
76039;SDS011;64736;50.462;4.850;2024-03-08T02:28:12;22.10;;;12.75;;
76039;SDS011;64736;50.462;4.850;2024-03-08T02:30:39;20.77;;;12.80;;
76039;SDS011;64736;50.462;4.850;2024-03-08T02:33:05;22.15;;;12.10;;
76039;SDS011;64736;50.462;4.850;2024-03-08T02:35:32;20.67;;;12.30;;
76039;SDS011;64736;50.462;4.850;2024-03-08T02:37:59;21.60;;;13.85;;
76039;SDS011;64736;50.462;4.850;2024-03-08T02:40:25;21.73;;;11.95;;
76039;SDS011;64736;50.462;4.850;2024-03-08T02:42:51;24.83;;;13.15;;
76039;SDS011;64736;50.462;4.850;2024-03-08T02:45:17;21.15;;;13.25;;
76039;SDS011;64736;50.462;4.850;2024-03-08T02:47:43;20.83;;;13.10;;
76039;SDS011;64736;50.462;4.850;2024-03-08T02:50:09;24.17;;;12.95;;
76039;SDS011;64736;50.462;4.850;2024-03-08T02:52:36;20.85;;;12.90;;
76039;SDS011;64736;50.462;4.850;2024-03-08T02:55:02;21.73;;;13.02;;
76039;SDS011;64736;50.462;4.850;2024-03-08T02:57:28;21.77;;;12.70;;
76039;SDS011;64736;50.462;4.850;2024-03-08T02:59:54;23.77;;;13.10;;
76039;SDS011;64736;50.462;4.850;2024-03-08T03:02:19;23.35;;;13.23;;
76039;SDS011;64736;50.462;4.850;2024-03-08T03:04:46;23.92;;;12.50;;
76039;SDS011;64736;50.462;4.850;2024-03-08T03:07:12;21.75;;;12.32;;
76039;SDS011;64736;50.462;4.850;2024-03-08T03:09:38;21.27;;;12.30;;
76039;SDS011;64736;50.462;4.850;2024-03-08T03:12:04;22.77;;;13.00;;
76039;SDS011;64736;50.462;4.850;2024-03-08T03:14:30;20.63;;;12.45;;
76039;SDS011;64736;50.462;4.850;2024-03-08T03:16:55;21.00;;;12.75;;
76039;SDS011;64736;50.462;4.850;2024-03-08T03:19:21;21.80;;;12.75;;
76039;SDS011;64736;50.462;4.850;2024-03-08T03:21:47;25.15;;;13.52;;
76039;SDS011;64736;50.462;4.850;2024-03-08T03:24:13;23.20;;;14.48;;
76039;SDS011;64736;50.462;4.850;2024-03-08T03:26:41;23.52;;;14.48;;
76039;SDS011;64736;50.462;4.850;2024-03-08T03:29:09;20.90;;;11.70;;
76039;SDS011;64736;50.462;4.850;2024-03-08T03:31:36;24.75;;;13.27;;
76039;SDS011;64736;50.462;4.850;2024-03-08T03:34:02;24.35;;;13.60;;
76039;SDS011;64736;50.462;4.850;2024-03-08T03:36:29;21.55;;;12.35;;
76039;SDS011;64736;50.462;4.850;2024-03-08T03:38:55;23.38;;;12.23;;
76039;SDS011;64736;50.462;4.850;2024-03-08T03:41:41;21.45;;;13.50;;
76039;SDS011;64736;50.462;4.850;2024-03-08T03:44:10;21.10;;;12.77;;
76039;SDS011;64736;50.462;4.850;2024-03-08T03:46:36;23.80;;;12.85;;
76039;SDS011;64736;50.462;4.850;2024-03-08T03:49:02;23.33;;;12.63;;
76039;SDS011;64736;50.462;4.850;2024-03-08T03:51:29;22.25;;;12.25;;
76039;SDS011;64736;50.462;4.850;2024-03-08T03:53:56;21.23;;;11.80;;
76039;SDS011;64736;50.462;4.850;2024-03-08T03:56:25;19.47;;;11.73;;
76039;SDS011;64736;50.462;4.850;2024-03-08T03:58:52;24.48;;;12.18;;
76039;SDS011;64736;50.462;4.850;2024-03-08T04:01:17;22.17;;;12.02;;
76039;SDS011;64736;50.462;4.850;2024-03-08T04:03:44;23.48;;;10.95;;
76039;SDS011;64736;50.462;4.850;2024-03-08T04:06:10;20.90;;;11.52;;
76039;SDS011;64736;50.462;4.850;2024-03-08T04:08:36;22.08;;;13.02;;
76039;SDS011;64736;50.462;4.850;2024-03-08T04:11:03;22.85;;;11.98;;
76039;SDS011;64736;50.462;4.850;2024-03-08T04:13:29;22.75;;;12.35;;
76039;SDS011;64736;50.462;4.850;2024-03-08T04:15:55;24.73;;;13.95;;
76039;SDS011;64736;50.462;4.850;2024-03-08T04:18:20;22.98;;;12.75;;
76039;SDS011;64736;50.462;4.850;2024-03-08T04:20:46;18.95;;;10.43;;
76039;SDS011;64736;50.462;4.850;2024-03-08T04:23:12;22.13;;;12.77;;
76039;SDS011;64736;50.462;4.850;2024-03-08T04:25:38;22.83;;;12.23;;
76039;SDS011;64736;50.462;4.850;2024-03-08T04:28:04;20.48;;;12.55;;
76039;SDS011;64736;50.462;4.850;2024-03-08T04:30:30;22.20;;;13.55;;
76039;SDS011;64736;50.462;4.850;2024-03-08T04:32:56;20.67;;;12.95;;
76039;SDS011;64736;50.462;4.850;2024-03-08T04:35:22;22.98;;;12.77;;
76039;SDS011;64736;50.462;4.850;2024-03-08T04:37:48;24.08;;;12.65;;
76039;SDS011;64736;50.462;4.850;2024-03-08T04:40:14;23.33;;;12.75;;
76039;SDS011;64736;50.462;4.850;2024-03-08T04:42:40;22.20;;;11.90;;
76039;SDS011;64736;50.462;4.850;2024-03-08T04:45:08;20.85;;;11.95;;
76039;SDS011;64736;50.462;4.850;2024-03-08T04:47:36;23.85;;;12.95;;
76039;SDS011;64736;50.462;4.850;2024-03-08T04:50:02;21.10;;;12.43;;
76039;SDS011;64736;50.462;4.850;2024-03-08T04:52:29;21.80;;;11.55;;
76039;SDS011;64736;50.462;4.850;2024-03-08T04:54:55;23.13;;;12.80;;
76039;SDS011;64736;50.462;4.850;2024-03-08T04:57:21;25.27;;;12.77;;
76039;SDS011;64736;50.462;4.850;2024-03-08T04:59:47;20.85;;;12.95;;
76039;SDS011;64736;50.462;4.850;2024-03-08T05:02:13;23.08;;;12.23;;
76039;SDS011;64736;50.462;4.850;2024-03-08T05:04:38;20.08;;;11.73;;
76039;SDS011;64736;50.462;4.850;2024-03-08T05:07:04;24.63;;;12.93;;
76039;SDS011;64736;50.462;4.850;2024-03-08T05:09:30;23.05;;;13.15;;
76039;SDS011;64736;50.462;4.850;2024-03-08T05:11:56;25.27;;;12.52;;
76039;SDS011;64736;50.462;4.850;2024-03-08T05:14:26;24.58;;;13.68;;
76039;SDS011;64736;50.462;4.850;2024-03-08T05:16:52;21.98;;;13.02;;
76039;SDS011;64736;50.462;4.850;2024-03-08T05:19:18;25.33;;;13.07;;
76039;SDS011;64736;50.462;4.850;2024-03-08T05:21:45;27.40;;;14.43;;
76039;SDS011;64736;50.462;4.850;2024-03-08T05:24:12;28.58;;;14.40;;
76039;SDS011;64736;50.462;4.850;2024-03-08T05:26:39;25.83;;;14.40;;
76039;SDS011;64736;50.462;4.850;2024-03-08T05:29:08;27.15;;;14.48;;
76039;SDS011;64736;50.462;4.850;2024-03-08T05:34:12;23.88;;;13.60;;
76039;SDS011;64736;50.462;4.850;2024-03-08T05:36:40;24.40;;;13.48;;
76039;SDS011;64736;50.462;4.850;2024-03-08T05:39:10;22.90;;;13.35;;
76039;SDS011;64736;50.462;4.850;2024-03-08T05:41:38;26.75;;;14.38;;
76039;SDS011;64736;50.462;4.850;2024-03-08T05:44:04;28.98;;;14.20;;
76039;SDS011;64736;50.462;4.850;2024-03-08T05:46:30;26.00;;;13.70;;
76039;SDS011;64736;50.462;4.850;2024-03-08T05:48:56;30.27;;;14.70;;
76039;SDS011;64736;50.462;4.850;2024-03-08T05:51:24;26.88;;;14.48;;
76039;SDS011;64736;50.462;4.850;2024-03-08T05:53:53;27.98;;;15.00;;
76039;SDS011;64736;50.462;4.850;2024-03-08T05:56:21;30.20;;;15.00;;
76039;SDS011;64736;50.462;4.850;2024-03-08T05:58:48;25.88;;;13.80;;
76039;SDS011;64736;50.462;4.850;2024-03-08T06:01:15;25.00;;;13.95;;
76039;SDS011;64736;50.462;4.850;2024-03-08T06:03:43;24.02;;;13.82;;
76039;SDS011;64736;50.462;4.850;2024-03-08T06:06:12;23.17;;;13.10;;
76039;SDS011;64736;50.462;4.850;2024-03-08T06:08:38;22.88;;;13.13;;
76039;SDS011;64736;50.462;4.850;2024-03-08T06:11:04;26.10;;;14.27;;
76039;SDS011;64736;50.462;4.850;2024-03-08T06:13:33;25.05;;;15.15;;
76039;SDS011;64736;50.462;4.850;2024-03-08T06:16:00;25.95;;;14.00;;
76039;SDS011;64736;50.462;4.850;2024-03-08T06:18:33;26.88;;;15.27;;
76039;SDS011;64736;50.462;4.850;2024-03-08T06:21:02;28.33;;;15.73;;
76039;SDS011;64736;50.462;4.850;2024-03-08T06:23:31;24.85;;;14.73;;
76039;SDS011;64736;50.462;4.850;2024-03-08T06:25:57;29.67;;;16.02;;
76039;SDS011;64736;50.462;4.850;2024-03-08T06:28:23;28.13;;;15.68;;
76039;SDS011;64736;50.462;4.850;2024-03-08T06:30:49;31.98;;;16.55;;
76039;SDS011;64736;50.462;4.850;2024-03-08T06:33:16;28.65;;;15.15;;
76039;SDS011;64736;50.462;4.850;2024-03-08T06:35:43;26.30;;;15.02;;
76039;SDS011;64736;50.462;4.850;2024-03-08T06:38:09;31.52;;;14.75;;
76039;SDS011;64736;50.462;4.850;2024-03-08T06:40:37;33.42;;;16.75;;
76039;SDS011;64736;50.462;4.850;2024-03-08T06:43:02;25.80;;;14.20;;
76039;SDS011;64736;50.462;4.850;2024-03-08T06:45:31;28.05;;;16.42;;
76039;SDS011;64736;50.462;4.850;2024-03-08T06:47:57;26.23;;;15.23;;
76039;SDS011;64736;50.462;4.850;2024-03-08T06:50:23;29.42;;;15.95;;
76039;SDS011;64736;50.462;4.850;2024-03-08T06:52:49;26.30;;;15.80;;
76039;SDS011;64736;50.462;4.850;2024-03-08T06:55:21;32.45;;;17.63;;
76039;SDS011;64736;50.462;4.850;2024-03-08T06:57:46;27.58;;;15.15;;
76039;SDS011;64736;50.462;4.850;2024-03-08T07:00:12;33.17;;;16.00;;
76039;SDS011;64736;50.462;4.850;2024-03-08T07:02:44;31.30;;;16.17;;
76039;SDS011;64736;50.462;4.850;2024-03-08T07:05:19;27.48;;;15.88;;
76039;SDS011;64736;50.462;4.850;2024-03-08T07:07:45;26.88;;;13.65;;
76039;SDS011;64736;50.462;4.850;2024-03-08T07:10:13;28.50;;;15.30;;
76039;SDS011;64736;50.462;4.850;2024-03-08T07:12:43;29.73;;;15.98;;
76039;SDS011;64736;50.462;4.850;2024-03-08T07:15:09;29.23;;;17.05;;
76039;SDS011;64736;50.462;4.850;2024-03-08T07:17:41;31.27;;;15.32;;
76039;SDS011;64736;50.462;4.850;2024-03-08T07:20:10;29.85;;;15.68;;
76039;SDS011;64736;50.462;4.850;2024-03-08T07:22:38;28.83;;;14.77;;
76039;SDS011;64736;50.462;4.850;2024-03-08T07:25:07;29.20;;;16.13;;
76039;SDS011;64736;50.462;4.850;2024-03-08T07:27:47;30.00;;;14.25;;
76039;SDS011;64736;50.462;4.850;2024-03-08T07:30:22;29.45;;;14.65;;
76039;SDS011;64736;50.462;4.850;2024-03-08T07:33:09;25.77;;;14.63;;
76039;SDS011;64736;50.462;4.850;2024-03-08T07:35:38;30.73;;;15.13;;
76039;SDS011;64736;50.462;4.850;2024-03-08T07:38:05;31.33;;;17.30;;
76039;SDS011;64736;50.462;4.850;2024-03-08T07:40:38;30.48;;;15.88;;
76039;SDS011;64736;50.462;4.850;2024-03-08T07:43:08;33.28;;;17.52;;
76039;SDS011;64736;50.462;4.850;2024-03-08T07:45:36;33.00;;;16.95;;
76039;SDS011;64736;50.462;4.850;2024-03-08T07:48:05;29.02;;;15.20;;
76039;SDS011;64736;50.462;4.850;2024-03-08T07:50:38;30.70;;;17.90;;
76039;SDS011;64736;50.462;4.850;2024-03-08T07:53:05;29.20;;;15.88;;
76039;SDS011;64736;50.462;4.850;2024-03-08T07:55:35;30.17;;;16.30;;
76039;SDS011;64736;50.462;4.850;2024-03-08T07:58:01;29.13;;;16.10;;
76039;SDS011;64736;50.462;4.850;2024-03-08T08:00:28;26.15;;;16.02;;
76039;SDS011;64736;50.462;4.850;2024-03-08T08:02:56;28.90;;;16.15;;
76039;SDS011;64736;50.462;4.850;2024-03-08T08:05:22;30.17;;;15.25;;
76039;SDS011;64736;50.462;4.850;2024-03-08T08:07:48;26.38;;;14.75;;
76039;SDS011;64736;50.462;4.850;2024-03-08T08:10:15;26.15;;;14.38;;
76039;SDS011;64736;50.462;4.850;2024-03-08T08:12:47;28.10;;;15.10;;
76039;SDS011;64736;50.462;4.850;2024-03-08T08:15:14;26.40;;;16.15;;
76039;SDS011;64736;50.462;4.850;2024-03-08T08:17:44;26.23;;;14.60;;
76039;SDS011;64736;50.462;4.850;2024-03-08T08:20:11;25.10;;;14.00;;
76039;SDS011;64736;50.462;4.850;2024-03-08T08:22:39;25.05;;;14.00;;
76039;SDS011;64736;50.462;4.850;2024-03-08T08:25:09;29.77;;;15.70;;
76039;SDS011;64736;50.462;4.850;2024-03-08T08:27:38;30.30;;;16.30;;
76039;SDS011;64736;50.462;4.850;2024-03-08T08:30:10;27.35;;;15.10;;
76039;SDS011;64736;50.462;4.850;2024-03-08T08:32:37;18.70;;;11.02;;
76039;SDS011;64736;50.462;4.850;2024-03-08T08:35:07;30.40;;;15.80;;
76039;SDS011;64736;50.462;4.850;2024-03-08T08:37:35;27.15;;;16.27;;
76039;SDS011;64736;50.462;4.850;2024-03-08T08:40:03;30.00;;;16.17;;
76039;SDS011;64736;50.462;4.850;2024-03-08T08:42:34;30.20;;;14.95;;
76039;SDS011;64736;50.462;4.850;2024-03-08T08:45:00;26.27;;;14.93;;
76039;SDS011;64736;50.462;4.850;2024-03-08T08:47:27;27.98;;;15.98;;
76039;SDS011;64736;50.462;4.850;2024-03-08T08:49:53;23.42;;;13.57;;
76039;SDS011;64736;50.462;4.850;2024-03-08T08:52:19;28.27;;;14.00;;
76039;SDS011;64736;50.462;4.850;2024-03-08T08:54:45;26.42;;;14.10;;
76039;SDS011;64736;50.462;4.850;2024-03-08T08:57:11;24.15;;;13.63;;
76039;SDS011;64736;50.462;4.850;2024-03-08T08:59:36;23.48;;;12.98;;
76039;SDS011;64736;50.462;4.850;2024-03-08T09:02:06;24.95;;;14.82;;
76039;SDS011;64736;50.462;4.850;2024-03-08T09:04:34;22.13;;;12.60;;
76039;SDS011;64736;50.462;4.850;2024-03-08T09:07:01;25.20;;;14.85;;
76039;SDS011;64736;50.462;4.850;2024-03-08T09:09:27;24.55;;;13.30;;
76039;SDS011;64736;50.462;4.850;2024-03-08T09:11:52;23.50;;;12.73;;
76039;SDS011;64736;50.462;4.850;2024-03-08T09:14:19;21.25;;;13.00;;
76039;SDS011;64736;50.462;4.850;2024-03-08T09:16:45;20.63;;;13.10;;
76039;SDS011;64736;50.462;4.850;2024-03-08T09:19:13;20.25;;;11.63;;
76039;SDS011;64736;50.462;4.850;2024-03-08T09:21:38;17.45;;;9.68;;
76039;SDS011;64736;50.462;4.850;2024-03-08T09:24:05;19.00;;;9.60;;
76039;SDS011;64736;50.462;4.850;2024-03-08T09:26:51;17.92;;;11.27;;
76039;SDS011;64736;50.462;4.850;2024-03-08T09:29:17;18.88;;;11.80;;
76039;SDS011;64736;50.462;4.850;2024-03-08T09:31:43;17.17;;;10.77;;
76039;SDS011;64736;50.462;4.850;2024-03-08T09:34:19;16.93;;;11.50;;
76039;SDS011;64736;50.462;4.850;2024-03-08T09:36:44;17.02;;;11.30;;
76039;SDS011;64736;50.462;4.850;2024-03-08T09:39:10;17.25;;;10.65;;
76039;SDS011;64736;50.462;4.850;2024-03-08T09:41:45;18.45;;;10.57;;
76039;SDS011;64736;50.462;4.850;2024-03-08T09:44:17;20.33;;;11.20;;
76039;SDS011;64736;50.462;4.850;2024-03-08T09:46:45;19.50;;;11.50;;
76039;SDS011;64736;50.462;4.850;2024-03-08T09:49:16;19.23;;;11.65;;
76039;SDS011;64736;50.462;4.850;2024-03-08T09:51:42;19.45;;;10.27;;
76039;SDS011;64736;50.462;4.850;2024-03-08T09:54:08;18.75;;;10.95;;
76039;SDS011;64736;50.462;4.850;2024-03-08T09:56:34;16.77;;;9.55;;
76039;SDS011;64736;50.462;4.850;2024-03-08T09:59:01;17.85;;;11.90;;
76039;SDS011;64736;50.462;4.850;2024-03-08T10:01:37;18.48;;;10.50;;
76039;SDS011;64736;50.462;4.850;2024-03-08T10:04:04;15.63;;;10.90;;
76039;SDS011;64736;50.462;4.850;2024-03-08T10:06:30;15.80;;;10.27;;
76039;SDS011;64736;50.462;4.850;2024-03-08T10:08:56;16.20;;;10.57;;
76039;SDS011;64736;50.462;4.850;2024-03-08T10:11:22;14.25;;;9.70;;
76039;SDS011;64736;50.462;4.850;2024-03-08T10:13:50;15.80;;;10.45;;
76039;SDS011;64736;50.462;4.850;2024-03-08T10:16:16;15.35;;;10.85;;
76039;SDS011;64736;50.462;4.850;2024-03-08T10:18:45;16.38;;;9.80;;
76039;SDS011;64736;50.462;4.850;2024-03-08T10:21:11;15.07;;;10.05;;
76039;SDS011;64736;50.462;4.850;2024-03-08T10:23:39;14.18;;;10.20;;
76039;SDS011;64736;50.462;4.850;2024-03-08T10:26:11;16.13;;;10.30;;
76039;SDS011;64736;50.462;4.850;2024-03-08T10:28:42;14.85;;;9.63;;
76039;SDS011;64736;50.462;4.850;2024-03-08T10:31:10;16.98;;;9.85;;
76039;SDS011;64736;50.462;4.850;2024-03-08T10:33:36;16.67;;;10.40;;
76039;SDS011;64736;50.462;4.850;2024-03-08T10:36:06;15.43;;;9.20;;
76039;SDS011;64736;50.462;4.850;2024-03-08T10:38:33;14.13;;;10.05;;
76039;SDS011;64736;50.462;4.850;2024-03-08T10:41:01;15.10;;;9.53;;
76039;SDS011;64736;50.462;4.850;2024-03-08T10:43:32;13.38;;;9.93;;
76039;SDS011;64736;50.462;4.850;2024-03-08T10:48:50;15.00;;;10.60;;
76039;SDS011;64736;50.462;4.850;2024-03-08T10:51:21;14.38;;;9.85;;
76039;SDS011;64736;50.462;4.850;2024-03-08T10:53:48;15.40;;;10.02;;
76039;SDS011;64736;50.462;4.850;2024-03-08T10:56:16;15.13;;;9.85;;
76039;SDS011;64736;50.462;4.850;2024-03-08T10:58:42;14.45;;;9.85;;
76039;SDS011;64736;50.462;4.850;2024-03-08T11:01:09;14.10;;;9.15;;
76039;SDS011;64736;50.462;4.850;2024-03-08T11:08:33;14.55;;;9.43;;
76039;SDS011;64736;50.462;4.850;2024-03-08T11:11:01;14.00;;;9.20;;
76039;SDS011;64736;50.462;4.850;2024-03-08T11:13:34;14.27;;;9.15;;
76039;SDS011;64736;50.462;4.850;2024-03-08T11:16:01;14.00;;;8.70;;
76039;SDS011;64736;50.462;4.850;2024-03-08T11:18:35;12.80;;;8.60;;
76039;SDS011;64736;50.462;4.850;2024-03-08T11:21:03;13.73;;;9.10;;
76039;SDS011;64736;50.462;4.850;2024-03-08T11:23:38;14.35;;;8.63;;
76039;SDS011;64736;50.462;4.850;2024-03-08T11:26:20;11.75;;;8.40;;
76039;SDS011;64736;50.462;4.850;2024-03-08T11:28:49;13.68;;;9.23;;
76039;SDS011;64736;50.462;4.850;2024-03-08T11:31:22;14.77;;;9.20;;
76039;SDS011;64736;50.462;4.850;2024-03-08T11:33:50;12.63;;;8.02;;
76039;SDS011;64736;50.462;4.850;2024-03-08T11:38:49;12.38;;;8.77;;
76039;SDS011;64736;50.462;4.850;2024-03-08T11:41:21;12.82;;;8.50;;
76039;SDS011;64736;50.462;4.850;2024-03-08T11:43:49;13.32;;;8.38;;
76039;SDS011;64736;50.462;4.850;2024-03-08T11:46:26;12.60;;;8.27;;
76039;SDS011;64736;50.462;4.850;2024-03-08T11:48:54;13.93;;;8.95;;
76039;SDS011;64736;50.462;4.850;2024-03-08T11:51:21;12.18;;;8.23;;
76039;SDS011;64736;50.462;4.850;2024-03-08T11:53:48;12.60;;;8.15;;
76039;SDS011;64736;50.462;4.850;2024-03-08T11:56:18;12.02;;;7.90;;
76039;SDS011;64736;50.462;4.850;2024-03-08T11:58:55;14.43;;;9.10;;
76039;SDS011;64736;50.462;4.850;2024-03-08T12:01:22;12.57;;;7.75;;
76039;SDS011;64736;50.462;4.850;2024-03-08T12:03:55;11.60;;;7.88;;
76039;SDS011;64736;50.462;4.850;2024-03-08T12:06:27;11.98;;;7.18;;
76039;SDS011;64736;50.462;4.850;2024-03-08T12:09:09;10.93;;;7.60;;
76039;SDS011;64736;50.462;4.850;2024-03-08T12:11:36;10.32;;;7.28;;
76039;SDS011;64736;50.462;4.850;2024-03-08T12:14:03;11.95;;;7.63;;
76039;SDS011;64736;50.462;4.850;2024-03-08T12:16:29;12.63;;;7.63;;
76039;SDS011;64736;50.462;4.850;2024-03-08T12:18:55;11.68;;;7.78;;
76039;SDS011;64736;50.462;4.850;2024-03-08T12:21:21;12.13;;;6.80;;
76039;SDS011;64736;50.462;4.850;2024-03-08T12:24:01;11.07;;;7.50;;
76039;SDS011;64736;50.462;4.850;2024-03-08T12:26:36;11.55;;;7.60;;
76039;SDS011;64736;50.462;4.850;2024-03-08T12:29:16;9.60;;;7.03;;
76039;SDS011;64736;50.462;4.850;2024-03-08T12:31:54;13.00;;;7.90;;
76039;SDS011;64736;50.462;4.850;2024-03-08T12:34:24;12.38;;;6.95;;
76039;SDS011;64736;50.462;4.850;2024-03-08T12:36:50;10.63;;;7.00;;
76039;SDS011;64736;50.462;4.850;2024-03-08T12:39:19;12.05;;;7.50;;
76039;SDS011;64736;50.462;4.850;2024-03-08T12:41:52;11.90;;;7.80;;
76039;SDS011;64736;50.462;4.850;2024-03-08T12:44:19;10.57;;;6.30;;
76039;SDS011;64736;50.462;4.850;2024-03-08T12:46:50;10.57;;;7.20;;
76039;SDS011;64736;50.462;4.850;2024-03-08T12:49:16;10.38;;;6.88;;
76039;SDS011;64736;50.462;4.850;2024-03-08T12:51:47;10.93;;;6.88;;
76039;SDS011;64736;50.462;4.850;2024-03-08T12:54:14;11.27;;;7.00;;
76039;SDS011;64736;50.462;4.850;2024-03-08T12:56:40;10.90;;;7.28;;
76039;SDS011;64736;50.462;4.850;2024-03-08T12:59:06;11.75;;;7.93;;
76039;SDS011;64736;50.462;4.850;2024-03-08T13:01:33;14.55;;;8.85;;
76039;SDS011;64736;50.462;4.850;2024-03-08T13:04:03;11.20;;;6.53;;
76039;SDS011;64736;50.462;4.850;2024-03-08T13:06:31;10.77;;;6.45;;
76039;SDS011;64736;50.462;4.850;2024-03-08T13:08:58;11.38;;;7.10;;
76039;SDS011;64736;50.462;4.850;2024-03-08T13:11:24;13.25;;;7.57;;
76039;SDS011;64736;50.462;4.850;2024-03-08T13:13:50;10.23;;;6.75;;
76039;SDS011;64736;50.462;4.850;2024-03-08T13:16:17;10.55;;;7.32;;
76039;SDS011;64736;50.462;4.850;2024-03-08T13:18:45;12.35;;;7.32;;
76039;SDS011;64736;50.462;4.850;2024-03-08T13:21:14;11.30;;;8.05;;
76039;SDS011;64736;50.462;4.850;2024-03-08T13:23:44;12.00;;;7.65;;
76039;SDS011;64736;50.462;4.850;2024-03-08T13:26:14;11.77;;;8.15;;
76039;SDS011;64736;50.462;4.850;2024-03-08T13:28:41;9.65;;;6.95;;
76039;SDS011;64736;50.462;4.850;2024-03-08T13:31:19;11.32;;;7.10;;
76039;SDS011;64736;50.462;4.850;2024-03-08T13:33:46;11.05;;;7.25;;
76039;SDS011;64736;50.462;4.850;2024-03-08T13:36:12;10.82;;;7.18;;
76039;SDS011;64736;50.462;4.850;2024-03-08T13:41:08;11.50;;;8.18;;
76039;SDS011;64736;50.462;4.850;2024-03-08T13:43:34;10.90;;;7.72;;
76039;SDS011;64736;50.462;4.850;2024-03-08T13:46:02;11.98;;;7.38;;
76039;SDS011;64736;50.462;4.850;2024-03-08T13:48:28;11.63;;;7.20;;
76039;SDS011;64736;50.462;4.850;2024-03-08T13:50:54;10.32;;;7.50;;
76039;SDS011;64736;50.462;4.850;2024-03-08T13:53:22;11.23;;;7.13;;
76039;SDS011;64736;50.462;4.850;2024-03-08T13:55:49;12.57;;;7.78;;
76039;SDS011;64736;50.462;4.850;2024-03-08T13:58:15;12.88;;;7.57;;
76039;SDS011;64736;50.462;4.850;2024-03-08T14:00:41;11.02;;;6.85;;
76039;SDS011;64736;50.462;4.850;2024-03-08T14:03:09;10.90;;;6.82;;
76039;SDS011;64736;50.462;4.850;2024-03-08T14:08:05;10.98;;;6.28;;
76039;SDS011;64736;50.462;4.850;2024-03-08T14:10:34;9.60;;;6.28;;
76039;SDS011;64736;50.462;4.850;2024-03-08T14:13:02;10.93;;;6.03;;
76039;SDS011;64736;50.462;4.850;2024-03-08T14:15:32;11.52;;;6.60;;
76039;SDS011;64736;50.462;4.850;2024-03-08T14:18:00;10.93;;;7.28;;
76039;SDS011;64736;50.462;4.850;2024-03-08T14:20:32;10.05;;;6.22;;
76039;SDS011;64736;50.462;4.850;2024-03-08T14:22:58;10.40;;;6.03;;
76039;SDS011;64736;50.462;4.850;2024-03-08T14:25:24;10.25;;;6.60;;
76039;SDS011;64736;50.462;4.850;2024-03-08T14:27:50;8.20;;;5.40;;
76039;SDS011;64736;50.462;4.850;2024-03-08T14:30:23;10.32;;;6.00;;
76039;SDS011;64736;50.462;4.850;2024-03-08T14:33:06;11.05;;;6.03;;
76039;SDS011;64736;50.462;4.850;2024-03-08T14:35:43;11.00;;;6.75;;
76039;SDS011;64736;50.462;4.850;2024-03-08T14:38:09;9.90;;;6.97;;
76039;SDS011;64736;50.462;4.850;2024-03-08T14:40:39;10.70;;;7.13;;
76039;SDS011;64736;50.462;4.850;2024-03-08T14:43:05;9.27;;;6.50;;
76039;SDS011;64736;50.462;4.850;2024-03-08T14:45:31;11.73;;;6.95;;
76039;SDS011;64736;50.462;4.850;2024-03-08T14:47:57;10.00;;;6.35;;
76039;SDS011;64736;50.462;4.850;2024-03-08T14:50:23;10.27;;;6.43;;
76039;SDS011;64736;50.462;4.850;2024-03-08T14:52:50;10.30;;;6.57;;